createdAt,value
2022-08-22T00:00:33.250Z,9.5
2022-08-22T00:02:33.380Z,9.3
2022-08-22T00:02:49.335Z,8.8
2022-08-22T00:02:54.357Z,9.3
2022-08-22T00:02:59.810Z,10.6
2022-08-22T00:04:35.806Z,9.3
2022-08-22T00:06:41.766Z,8.3
2022-08-22T00:10:42.268Z,8.7
2022-08-22T00:12:34.193Z,10.4
2022-08-22T00:14:36.119Z,7.9
2022-08-22T00:16:34.148Z,10.7
2022-08-22T00:18:34.107Z,8.6
2022-08-22T00:20:35.039Z,7.6
2022-08-22T00:22:32.974Z,8.0
2022-08-22T00:24:32.261Z,9.7
2022-08-22T00:26:42.136Z,8.3
2022-08-22T00:28:33.583Z,9.6
2022-08-22T00:30:29.322Z,7.8
2022-08-22T00:32:32.354Z,8.9
2022-08-22T00:34:33.718Z,7.8
2022-08-22T00:36:32.661Z,13.0
2022-08-22T00:38:31.514Z,8.5
2022-08-22T00:40:39.550Z,7.6
2022-08-22T00:42:45.353Z,9.8
2022-08-22T00:44:45.999Z,9.5
2022-08-22T00:48:41.031Z,9.8
2022-08-22T00:50:43.584Z,8.3
2022-08-22T00:52:41.354Z,10.0
2022-08-22T00:54:42.007Z,8.8
2022-08-22T00:56:46.254Z,8.9
2022-08-22T00:58:45.189Z,7.4
2022-08-22T01:00:28.325Z,8.4
2022-08-22T01:02:34.057Z,8.4
2022-08-22T01:04:40.382Z,11.7
2022-08-22T01:06:38.918Z,6.7
2022-08-22T01:08:41.605Z,11.7
2022-08-22T01:10:38.995Z,7.2
2022-08-22T01:12:41.848Z,7.8
2022-08-22T01:14:36.646Z,8.0
2022-08-22T01:18:43.959Z,5.2
2022-08-22T01:20:43.743Z,9.8
2022-08-22T01:22:43.646Z,6.8
2022-08-22T01:24:53.473Z,10.2
2022-08-22T01:26:44.004Z,6.2
2022-08-22T01:28:43.274Z,8.3
2022-08-22T01:30:42.918Z,9.0
2022-08-22T01:32:43.668Z,9.1
2022-08-22T01:34:41.653Z,11.0
2022-08-22T01:36:39.365Z,7.0
2022-08-22T01:38:42.231Z,8.0
2022-08-22T01:40:54.022Z,10.3
2022-08-22T01:42:38.345Z,10.0
2022-08-22T01:44:36.763Z,8.8
2022-08-22T01:46:34.238Z,8.9
2022-08-22T01:50:29.315Z,9.8
2022-08-22T01:56:24.601Z,9.2
2022-08-22T01:58:24.390Z,7.8
2022-08-22T02:00:34.858Z,13.0
2022-08-22T02:02:37.899Z,11.3
2022-08-22T02:04:37.494Z,8.9
2022-08-22T02:08:29.386Z,9.1
2022-08-22T02:10:35.792Z,10.1
2022-08-22T02:12:30.411Z,9.3
2022-08-22T02:14:37.807Z,9.6
2022-08-22T02:16:35.241Z,8.2
2022-08-22T02:18:27.106Z,9.9
2022-08-22T02:20:25.023Z,9.3
2022-08-22T02:22:35.641Z,12.1
2022-08-22T02:24:39.634Z,9.2
2022-08-22T02:26:25.045Z,11.1
2022-08-22T02:28:36.146Z,13.5
2022-08-22T02:30:25.323Z,10.1
2022-08-22T02:32:27.182Z,9.6
2022-08-22T02:34:36.014Z,9.9
2022-08-22T02:36:24.974Z,11.5
2022-08-22T02:38:28.733Z,7.8
2022-08-22T02:40:29.434Z,8.3
2022-08-22T02:42:24.040Z,9.6
2022-08-22T02:44:26.881Z,8.2
2022-08-22T02:46:28.005Z,9.5
2022-08-22T02:48:33.525Z,10.2
2022-08-22T02:50:25.432Z,8.9
2022-08-22T02:52:24.307Z,9.3
2022-08-22T02:54:25.263Z,9.4
2022-08-22T02:56:24.333Z,9.1
2022-08-22T02:58:29.519Z,9.1
2022-08-22T03:00:32.374Z,8.8
2022-08-22T03:04:27.629Z,8.9
2022-08-22T03:06:31.644Z,10.1
2022-08-22T03:12:25.642Z,7.9
2022-08-22T03:16:25.433Z,8.0
2022-08-22T03:18:24.036Z,7.7
2022-08-22T03:20:30.927Z,9.6
2022-08-22T03:22:29.163Z,8.7
2022-08-22T03:24:23.111Z,8.1
2022-08-22T03:26:24.047Z,7.5
2022-08-22T03:28:23.256Z,8.9
2022-08-22T03:30:20.739Z,6.8
2022-08-22T03:32:20.288Z,8.6
2022-08-22T03:34:21.282Z,8.8
2022-08-22T03:36:26.036Z,12.9
2022-08-22T03:38:22.181Z,9.6
2022-08-22T03:40:31.616Z,9.5
2022-08-22T03:42:30.034Z,8.5
2022-08-22T03:46:31.770Z,8.7
2022-08-22T03:48:34.416Z,9.5
2022-08-22T03:50:31.901Z,7.8
2022-08-22T03:52:33.183Z,7.9
2022-08-22T03:54:34.330Z,9.3
2022-08-22T03:56:34.321Z,8.9
2022-08-22T04:00:31.286Z,7.8
2022-08-22T04:02:42.781Z,9.8
2022-08-22T04:04:32.322Z,10.2
2022-08-22T04:06:31.115Z,9.4
2022-08-22T04:08:33.404Z,8.4
2022-08-22T04:10:33.787Z,10.0
2022-08-22T04:12:26.116Z,10.1
2022-08-22T04:14:27.145Z,7.4
2022-08-22T04:18:33.450Z,7.9
2022-08-22T04:20:32.586Z,8.4
2022-08-22T04:22:27.845Z,9.8
2022-08-22T04:24:32.970Z,10.8
2022-08-22T04:26:18.245Z,8.8
2022-08-22T04:28:21.105Z,9.2
2022-08-22T04:30:21.931Z,9.7
2022-08-22T04:32:18.865Z,9.3
2022-08-22T04:34:21.505Z,11.9
2022-08-22T04:36:19.068Z,10.6
2022-08-22T04:38:17.412Z,9.1
2022-08-22T04:40:18.950Z,9.2
2022-08-22T04:42:32.388Z,8.7
2022-08-22T04:46:18.964Z,9.4
2022-08-22T04:48:20.330Z,11.3
2022-08-22T04:52:29.394Z,8.7
2022-08-22T04:54:23.238Z,11.7
2022-08-22T04:56:22.250Z,9.3
2022-08-22T04:58:27.991Z,10.7
2022-08-22T05:04:15.971Z,10.2
2022-08-22T05:06:11.155Z,10.3
2022-08-22T05:08:15.462Z,8.8
2022-08-22T05:10:17.509Z,8.7
2022-08-22T05:12:15.788Z,7.5
2022-08-22T05:14:17.373Z,8.7
2022-08-22T05:16:14.933Z,7.2
2022-08-22T05:18:17.001Z,9.6
2022-08-22T05:20:14.279Z,7.7
2022-08-22T05:22:13.599Z,9.7
2022-08-22T05:24:13.939Z,10.6
2022-08-22T05:28:12.669Z,8.5
2022-08-22T05:30:14.784Z,9.8
2022-08-22T05:32:17.533Z,8.5
2022-08-22T05:36:12.491Z,9.7
2022-08-22T05:38:13.200Z,14.8
2022-08-22T05:40:13.651Z,10.4
2022-08-22T05:42:14.933Z,7.6
2022-08-22T05:44:19.559Z,10.8
2022-08-22T05:46:15.732Z,8.9
2022-08-22T05:48:13.163Z,8.5
2022-08-22T05:50:12.735Z,7.9
2022-08-22T05:52:15.418Z,13.0
2022-08-22T05:54:13.210Z,8.5
2022-08-22T05:58:17.779Z,9.4
2022-08-22T06:00:10.420Z,10.7
2022-08-22T06:02:13.005Z,9.2
2022-08-22T06:04:15.134Z,11.1
2022-08-22T06:08:13.397Z,10.6
2022-08-22T06:10:16.629Z,11.2
2022-08-22T06:12:15.077Z,9.4
2022-08-22T06:14:15.901Z,9.8
2022-08-22T06:18:11.804Z,13.2
2022-08-22T06:24:08.610Z,11.5
2022-08-22T06:26:20.181Z,9.1
2022-08-22T06:28:08.811Z,10.3
2022-08-22T06:30:06.952Z,11.0
2022-08-22T06:32:11.690Z,14.9
2022-08-22T06:34:09.776Z,10.6
2022-08-22T06:36:21.220Z,12.8
2022-08-22T06:38:04.240Z,11.8
2022-08-22T06:40:07.532Z,12.7
2022-08-22T06:42:07.829Z,10.4
2022-08-22T06:46:05.175Z,12.6
2022-08-22T06:48:14.507Z,10.8
2022-08-22T06:50:13.521Z,12.3
2022-08-22T06:52:11.330Z,12.6
2022-08-22T06:54:06.949Z,11.3
2022-08-22T06:56:04.735Z,9.1
2022-08-22T06:58:06.285Z,13.2
2022-08-22T07:00:09.405Z,12.0
2022-08-22T07:02:08.662Z,11.9
2022-08-22T07:04:06.500Z,11.1
2022-08-22T07:06:03.821Z,13.7
2022-08-22T07:08:05.878Z,12.0
2022-08-22T07:10:04.384Z,13.5
2022-08-22T07:12:09.936Z,11.5
2022-08-22T07:14:06.491Z,14.1
2022-08-22T07:16:06.903Z,13.1
2022-08-22T07:18:05.698Z,13.2
2022-08-22T07:20:16.277Z,12.2
2022-08-22T07:24:02.244Z,13.9
2022-08-22T07:26:15.321Z,15.6
2022-08-22T07:28:18.744Z,14.7
2022-08-22T07:30:06.592Z,12.4
2022-08-22T07:32:09.740Z,11.3
2022-08-22T07:34:19.329Z,14.9
2022-08-22T07:38:09.208Z,12.9
2022-08-22T07:40:12.622Z,10.8
2022-08-22T07:42:09.843Z,14.1
2022-08-22T07:44:12.665Z,14.1
2022-08-22T07:46:12.427Z,16.0
2022-08-22T07:48:25.091Z,11.7
2022-08-22T07:50:07.446Z,10.5
2022-08-22T07:52:07.063Z,12.0
2022-08-22T07:54:05.999Z,9.0
2022-08-22T07:56:06.074Z,11.4
2022-08-22T07:58:05.554Z,11.7
2022-08-22T08:00:10.079Z,13.3
2022-08-22T08:02:05.987Z,15.7
2022-08-22T08:04:04.354Z,12.2
2022-08-22T08:06:02.638Z,9.3
2022-08-22T08:08:07.330Z,11.4
2022-08-22T08:10:04.929Z,12.8
2022-08-22T08:12:04.336Z,12.3
2022-08-22T08:14:04.706Z,14.6
2022-08-22T08:16:01.628Z,12.1
2022-08-22T08:18:04.525Z,12.1
2022-08-22T08:20:06.356Z,12.6
2022-08-22T08:22:01.339Z,11.6
2022-08-22T08:24:01.856Z,13.1
2022-08-22T08:26:05.891Z,12.6
2022-08-22T08:28:10.257Z,12.4
2022-08-22T08:30:05.695Z,13.6
2022-08-22T08:32:01.028Z,12.1
2022-08-22T08:34:04.202Z,11.9
2022-08-22T08:36:09.115Z,13.2
2022-08-22T08:38:06.762Z,12.4
2022-08-22T08:40:07.316Z,15.7
2022-08-22T08:42:19.779Z,12.6
2022-08-22T08:44:08.183Z,13.0
2022-08-22T08:46:19.749Z,13.8
2022-08-22T08:48:16.860Z,15.7
2022-08-22T08:52:19.383Z,13.0
2022-08-22T08:54:17.139Z,12.4
2022-08-22T08:56:06.223Z,12.2
2022-08-22T08:58:15.648Z,14.6
2022-08-22T09:00:08.122Z,14.0
2022-08-22T09:02:20.560Z,14.8
2022-08-22T09:04:19.413Z,17.8
2022-08-22T09:06:08.520Z,14.0
2022-08-22T09:08:19.712Z,16.2
2022-08-22T09:10:19.203Z,14.2
2022-08-22T09:14:18.549Z,13.9
2022-08-22T09:16:17.695Z,17.8
2022-08-22T09:18:18.104Z,15.9
2022-08-22T09:20:17.815Z,16.8
2022-08-22T09:24:19.955Z,14.2
2022-08-22T09:26:05.849Z,11.3
2022-08-22T09:28:10.014Z,13.6
2022-08-22T09:30:07.253Z,11.6
2022-08-22T09:32:13.061Z,14.4
2022-08-22T09:34:09.429Z,10.2
2022-08-22T09:36:05.315Z,11.5
2022-08-22T09:38:21.132Z,17.7
2022-08-22T09:40:08.281Z,13.3
2022-08-22T09:42:09.590Z,12.8
2022-08-22T09:44:12.622Z,12.7
2022-08-22T09:46:13.377Z,15.1
2022-08-22T09:50:12.368Z,13.3
2022-08-22T09:52:15.146Z,12.7
2022-08-22T09:58:06.048Z,10.6
2022-08-22T10:00:13.806Z,10.7
2022-08-22T10:02:15.644Z,12.1
2022-08-22T10:04:21.100Z,10.2
2022-08-22T10:08:13.058Z,11.9
2022-08-22T10:10:18.172Z,9.9
2022-08-22T10:12:06.072Z,13.6
2022-08-22T10:14:08.249Z,10.8
2022-08-22T10:16:15.039Z,11.1
2022-08-22T10:18:13.747Z,11.0
2022-08-22T10:20:14.083Z,9.1
2022-08-22T10:22:17.092Z,10.8
2022-08-22T10:26:22.875Z,10.8
2022-08-22T10:28:14.302Z,10.7
2022-08-22T10:30:09.215Z,11.2
2022-08-22T10:32:14.846Z,11.1
2022-08-22T10:34:09.014Z,10.0
2022-08-22T10:36:07.262Z,12.1
2022-08-22T10:38:11.102Z,12.2
2022-08-22T10:40:14.491Z,12.2
2022-08-22T10:42:18.820Z,10.9
2022-08-22T10:44:19.601Z,10.3
2022-08-22T10:46:12.654Z,8.8
2022-08-22T10:48:22.639Z,9.5
2022-08-22T10:50:12.772Z,11.8
2022-08-22T10:52:15.593Z,8.3
2022-08-22T10:54:20.569Z,9.9
2022-08-22T10:56:10.630Z,7.9
2022-08-22T10:58:10.017Z,11.5
2022-08-22T11:02:20.237Z,9.1
2022-08-22T11:04:13.210Z,10.5
2022-08-22T11:06:07.400Z,8.9
2022-08-22T11:08:15.944Z,10.2
2022-08-22T11:10:14.543Z,7.6
2022-08-22T11:12:14.671Z,8.7
2022-08-22T11:14:21.778Z,8.8
2022-08-22T11:18:19.721Z,6.4
2022-08-22T11:20:19.452Z,7.5
2022-08-22T11:22:21.814Z,9.1
2022-08-22T11:24:35.435Z,9.9
2022-08-22T11:26:29.857Z,7.5
2022-08-22T11:30:09.827Z,6.5
2022-08-22T11:32:14.084Z,10.5
2022-08-22T11:34:12.943Z,11.3
2022-08-22T11:36:21.461Z,9.6
2022-08-22T11:38:17.562Z,10.4
2022-08-22T11:42:11.706Z,9.2
2022-08-22T11:44:13.940Z,8.3
2022-08-22T11:46:20.086Z,7.8
2022-08-22T11:50:14.307Z,6.0
2022-08-22T11:52:12.469Z,6.8
2022-08-22T11:54:11.856Z,6.9
2022-08-22T11:56:16.439Z,9.3
2022-08-22T12:00:17.976Z,5.8
2022-08-22T12:02:17.769Z,6.9
2022-08-22T12:04:14.828Z,7.4
2022-08-22T12:06:27.652Z,13.6
2022-08-22T12:08:14.125Z,6.8
2022-08-22T12:12:19.912Z,9.5
2022-08-22T12:14:19.181Z,8.5
2022-08-22T12:18:26.238Z,10.4
2022-08-22T12:20:23.250Z,10.3
2022-08-22T12:22:29.014Z,5.8
2022-08-22T12:24:22.110Z,9.3
2022-08-22T12:26:17.580Z,6.7
2022-08-22T12:28:16.943Z,6.6
2022-08-22T12:30:18.178Z,6.5
2022-08-22T12:32:32.637Z,8.1
2022-08-22T12:34:18.730Z,5.0
2022-08-22T12:36:30.197Z,7.9
2022-08-22T12:38:29.411Z,7.3
2022-08-22T12:40:27.252Z,7.6
2022-08-22T12:42:30.700Z,6.3
2022-08-22T12:44:22.630Z,4.9
2022-08-22T12:46:17.308Z,6.8
2022-08-22T12:48:24.147Z,7.7
2022-08-22T12:50:21.686Z,7.9
2022-08-22T12:52:27.691Z,9.2
2022-08-22T12:56:26.378Z,8.9
2022-08-22T12:58:33.879Z,7.0
2022-08-22T13:00:27.081Z,9.7
2022-08-22T13:02:16.745Z,8.4
2022-08-22T13:04:29.764Z,8.1
2022-08-22T13:06:33.199Z,7.2
2022-08-22T13:08:23.667Z,10.8
2022-08-22T13:10:33.336Z,8.7
2022-08-22T13:14:25.324Z,8.2
2022-08-22T13:18:29.293Z,8.7
2022-08-22T13:22:22.288Z,7.8
2022-08-22T13:24:38.972Z,7.7
2022-08-22T13:26:32.190Z,7.8
2022-08-22T13:28:16.461Z,7.6
2022-08-22T13:30:19.973Z,8.8
2022-08-22T13:32:23.554Z,7.3
2022-08-22T13:34:27.056Z,8.0
2022-08-22T13:36:19.399Z,8.8
2022-08-22T13:38:25.971Z,8.5
2022-08-22T13:40:24.651Z,8.4
2022-08-22T13:44:20.643Z,9.1
2022-08-22T13:46:24.947Z,7.6
2022-08-22T13:48:28.640Z,8.7
2022-08-22T13:50:20.908Z,7.1
2022-08-22T13:52:30.108Z,5.2
2022-08-22T13:54:39.982Z,12.5
2022-08-22T13:56:21.076Z,7.8
2022-08-22T14:00:38.282Z,8.0
2022-08-22T14:02:34.371Z,7.9
2022-08-22T14:04:30.930Z,8.8
2022-08-22T14:06:37.316Z,6.9
2022-08-22T14:08:25.839Z,12.4
2022-08-22T14:10:22.755Z,7.0
2022-08-22T14:12:23.518Z,8.6
2022-08-22T14:14:23.781Z,7.0
2022-08-22T14:16:23.754Z,9.0
2022-08-22T14:18:30.405Z,7.8
2022-08-22T14:20:32.083Z,7.5
2022-08-22T14:24:27.465Z,8.1
2022-08-22T14:26:23.719Z,7.5
2022-08-22T14:28:27.527Z,8.3
2022-08-22T14:30:25.382Z,5.5
2022-08-22T14:34:25.032Z,6.9
2022-08-22T14:36:27.836Z,8.4
2022-08-22T14:38:30.122Z,6.9
2022-08-22T14:40:27.467Z,11.5
2022-08-22T14:42:27.585Z,7.9
2022-08-22T14:46:27.779Z,7.6
2022-08-22T14:48:31.655Z,6.1
2022-08-22T14:50:38.418Z,6.9
2022-08-22T14:54:28.880Z,4.9
2022-08-22T14:56:28.438Z,5.6
2022-08-22T15:00:31.305Z,6.3
2022-08-22T15:02:28.420Z,4.3
2022-08-22T15:08:30.829Z,8.2
2022-08-22T15:10:31.574Z,5.8
2022-08-22T15:12:30.578Z,7.4
2022-08-22T15:16:32.444Z,7.9
2022-08-22T15:18:34.214Z,8.5
2022-08-22T15:20:30.669Z,6.4
2022-08-22T15:24:26.935Z,8.4
2022-08-22T15:26:30.960Z,6.3
2022-08-22T15:28:44.945Z,5.9
2022-08-22T15:32:30.573Z,8.6
2022-08-22T15:36:28.099Z,7.7
2022-08-22T15:38:31.368Z,8.1
2022-08-22T15:40:34.638Z,6.1
2022-08-22T15:46:34.936Z,6.0
2022-08-22T15:48:35.348Z,10.2
2022-08-22T15:50:33.811Z,7.9
2022-08-22T15:52:34.058Z,9.2
2022-08-22T15:54:46.744Z,7.2
2022-08-22T15:56:34.088Z,5.6
2022-08-22T15:58:31.284Z,6.6
2022-08-22T16:00:35.080Z,7.0
2022-08-22T16:02:35.357Z,7.1
2022-08-22T16:04:43.000Z,7.0
2022-08-22T16:08:47.447Z,8.8
2022-08-22T16:10:36.098Z,7.3
2022-08-22T16:12:35.421Z,8.0
2022-08-22T16:14:45.222Z,6.2
2022-08-22T16:16:51.491Z,5.5
2022-08-22T16:18:51.657Z,6.5
2022-08-22T16:20:49.289Z,4.3
2022-08-22T16:22:51.903Z,7.6
2022-08-22T16:24:52.087Z,7.1
2022-08-22T16:26:39.434Z,4.7
2022-08-22T16:28:57.469Z,7.8
2022-08-22T16:30:37.436Z,5.3
2022-08-22T16:32:33.724Z,6.1
2022-08-22T16:34:44.672Z,8.8
2022-08-22T16:36:40.916Z,9.5
2022-08-22T16:38:39.927Z,10.7
2022-08-22T16:40:46.096Z,7.7
2022-08-22T16:44:42.320Z,7.5
2022-08-22T16:46:37.763Z,6.9
2022-08-22T16:50:37.608Z,6.7
2022-08-22T16:56:45.349Z,5.3
2022-08-22T17:00:44.056Z,7.3
2022-08-22T17:02:53.354Z,7.0
2022-08-22T17:04:47.679Z,7.8
2022-08-22T17:08:52.841Z,7.1
2022-08-22T17:10:50.718Z,6.5
2022-08-22T17:12:49.166Z,6.1
2022-08-22T17:16:54.352Z,6.4
2022-08-22T17:18:48.089Z,6.0
2022-08-22T17:20:46.334Z,6.3
2022-08-22T17:22:49.331Z,6.2
2022-08-22T17:26:48.809Z,6.2
2022-08-22T17:28:41.290Z,7.5
2022-08-22T17:30:42.754Z,6.8
2022-08-22T17:32:59.043Z,6.2
2022-08-22T17:34:48.724Z,6.3
2022-08-22T17:36:50.283Z,6.7
2022-08-22T17:38:52.501Z,6.1
2022-08-22T17:40:46.493Z,7.5
2022-08-22T17:42:58.421Z,5.2
2022-08-22T17:44:49.068Z,7.9
2022-08-22T17:46:46.476Z,6.2
2022-08-22T17:48:46.947Z,4.1
2022-08-22T17:50:45.623Z,8.8
2022-08-22T17:52:44.037Z,10.2
2022-08-22T17:54:47.239Z,7.1
2022-08-22T17:56:44.591Z,6.0
2022-08-22T17:58:44.723Z,5.3
2022-08-22T18:00:49.079Z,9.2
2022-08-22T18:04:47.629Z,9.0
2022-08-22T18:06:48.327Z,6.9
2022-08-22T18:09:13.343Z,10.2
2022-08-22T18:10:47.269Z,6.2
2022-08-22T18:14:50.534Z,15.6
2022-08-22T18:18:58.459Z,17.0
2022-08-22T18:20:49.807Z,17.4
2022-08-22T18:22:47.749Z,12.2
2022-08-22T18:24:47.574Z,16.1
2022-08-22T18:26:49.969Z,7.1
2022-08-22T18:28:48.298Z,13.4
2022-08-22T18:32:50.391Z,14.8
2022-08-22T18:34:46.087Z,20.4
2022-08-22T18:38:53.454Z,25.8
2022-08-22T18:40:50.274Z,20.7
2022-08-22T18:42:47.186Z,25.1
2022-08-22T18:48:59.371Z,17.6
2022-08-22T18:50:42.288Z,15.1
2022-08-22T18:52:44.389Z,12.9
2022-08-22T18:54:56.865Z,11.0
2022-08-22T18:56:49.234Z,11.9
2022-08-22T18:59:05.510Z,9.8
2022-08-22T19:00:56.406Z,17.7
2022-08-22T19:04:59.157Z,9.8
2022-08-22T19:07:02.802Z,11.1
2022-08-22T19:08:59.852Z,9.6
2022-08-22T19:10:53.565Z,14.6
2022-08-22T19:17:02.357Z,21.3
2022-08-22T19:18:50.488Z,16.7
2022-08-22T19:20:52.944Z,16.6
2022-08-22T19:22:44.168Z,25.2
2022-08-22T19:25:01.824Z,18.7
2022-08-22T19:26:46.795Z,13.8
2022-08-22T19:28:43.092Z,12.5
2022-08-22T19:30:45.606Z,12.8
2022-08-22T19:32:54.730Z,13.8
2022-08-22T19:34:46.819Z,9.6
2022-08-22T19:36:44.848Z,14.1
2022-08-22T19:38:55.836Z,14.2
2022-08-22T19:44:45.559Z,10.9
2022-08-22T19:46:46.485Z,11.7
2022-08-22T19:48:46.602Z,17.0
2022-08-22T19:50:43.364Z,13.5
2022-08-22T19:54:51.397Z,11.6
2022-08-22T19:57:00.068Z,10.1
2022-08-22T19:58:57.545Z,15.5
2022-08-22T20:00:53.446Z,10.0
2022-08-22T20:02:58.172Z,9.8
2022-08-22T20:05:02.898Z,10.7
2022-08-22T20:06:54.910Z,9.5
2022-08-22T20:08:55.618Z,9.5
2022-08-22T20:10:57.962Z,6.9
2022-08-22T20:14:45.529Z,8.3
2022-08-22T20:17:02.946Z,6.5
2022-08-22T20:19:06.450Z,9.3
2022-08-22T20:22:47.459Z,7.4
2022-08-22T20:24:45.873Z,7.1
2022-08-22T20:27:10.058Z,7.4
2022-08-22T20:28:47.783Z,5.5
2022-08-22T20:32:46.522Z,7.4
2022-08-22T20:34:45.789Z,9.2
2022-08-22T20:36:44.638Z,7.4
2022-08-22T20:38:55.459Z,6.5
2022-08-22T20:40:56.346Z,7.3
2022-08-22T20:42:47.359Z,8.7
2022-08-22T20:44:53.287Z,6.9
2022-08-22T20:46:53.506Z,5.6
2022-08-22T20:48:44.972Z,7.8
2022-08-22T20:52:51.994Z,8.7
2022-08-22T20:55:02.465Z,7.6
2022-08-22T20:56:53.032Z,8.2
2022-08-22T21:00:46.753Z,5.3
2022-08-22T21:02:54.239Z,5.6
2022-08-22T21:04:49.801Z,7.5
2022-08-22T21:06:42.731Z,8.1
2022-08-22T21:08:44.917Z,7.7
2022-08-22T21:10:52.693Z,8.7
2022-08-22T21:13:02.390Z,12.3
2022-08-22T21:14:45.221Z,7.1
2022-08-22T21:16:42.685Z,6.8
2022-08-22T21:18:45.862Z,8.4
2022-08-22T21:20:42.383Z,7.1
2022-08-22T21:22:42.364Z,8.1
2022-08-22T21:24:42.982Z,8.3
2022-08-22T21:26:48.035Z,6.8
2022-08-22T21:28:54.872Z,7.7
2022-08-22T21:30:42.447Z,7.7
2022-08-22T21:32:51.066Z,10.3
2022-08-22T21:36:42.822Z,10.6
2022-08-22T21:38:47.030Z,6.3
2022-08-22T21:40:42.413Z,12.2
2022-08-22T21:42:54.012Z,5.7
2022-08-22T21:44:56.141Z,8.2
2022-08-22T21:46:42.057Z,5.9
2022-08-22T21:48:52.860Z,6.5
2022-08-22T21:50:41.520Z,8.3
2022-08-22T21:52:43.732Z,6.6
2022-08-22T21:54:41.538Z,8.5
2022-08-22T21:56:41.458Z,9.6
2022-08-22T22:00:49.336Z,8.9
2022-08-22T22:02:41.554Z,12.0
2022-08-22T22:04:41.022Z,6.7
2022-08-22T22:06:41.161Z,9.3
2022-08-22T22:08:40.864Z,8.1
2022-08-22T22:10:43.258Z,6.3
2022-08-22T22:12:42.893Z,9.3
2022-08-22T22:14:43.533Z,8.8
2022-08-22T22:16:41.134Z,6.3
2022-08-22T22:18:40.578Z,8.8
2022-08-22T22:22:45.821Z,6.1
2022-08-22T22:26:40.329Z,10.7
2022-08-22T22:28:46.277Z,8.8
2022-08-22T22:30:41.064Z,9.6
2022-08-22T22:36:41.897Z,10.1
2022-08-22T22:40:40.625Z,8.5
2022-08-22T22:42:40.338Z,8.1
2022-08-22T22:44:39.633Z,6.6
2022-08-22T22:46:39.510Z,6.9
2022-08-22T22:48:39.572Z,7.0
2022-08-22T22:50:42.180Z,6.6
2022-08-22T22:52:40.835Z,10.3
2022-08-22T22:54:39.361Z,7.4
2022-08-22T22:56:39.471Z,7.9
2022-08-22T22:58:39.893Z,8.7
2022-08-22T23:00:39.292Z,8.3
2022-08-22T23:04:42.535Z,9.3
2022-08-22T23:06:38.536Z,7.2
2022-08-22T23:08:38.684Z,8.9
2022-08-22T23:10:38.362Z,13.0
2022-08-22T23:12:38.897Z,8.6
2022-08-22T23:14:38.624Z,12.1
2022-08-22T23:16:39.596Z,9.0
2022-08-22T23:18:38.384Z,9.6
2022-08-22T23:20:37.796Z,12.7
2022-08-22T23:22:39.325Z,9.2
2022-08-22T23:24:39.138Z,9.8
2022-08-22T23:30:37.598Z,13.2
2022-08-22T23:32:38.363Z,12.0
2022-08-22T23:34:44.742Z,14.0
2022-08-22T23:38:37.429Z,9.6
2022-08-22T23:40:36.976Z,9.0
2022-08-22T23:42:36.977Z,10.7
2022-08-22T23:44:39.939Z,10.6
2022-08-22T23:46:37.318Z,11.9
2022-08-22T23:48:36.861Z,11.0
2022-08-22T23:50:36.733Z,11.3
2022-08-22T23:52:36.762Z,11.9
2022-08-22T23:54:37.289Z,14.5
2022-08-22T23:56:39.614Z,10.1
2022-08-22T23:58:36.865Z,10.6
